createdAt,value
2023-03-15T00:00:55.703Z,97665.00
2023-03-15T00:03:31.012Z,97672.00
2023-03-15T00:06:06.608Z,97683.00
2023-03-15T00:08:41.494Z,97676.00
2023-03-15T00:11:17.049Z,97687.00
2023-03-15T00:13:52.322Z,97696.00
2023-03-15T00:16:27.914Z,97700.00
2023-03-15T00:19:03.129Z,97705.00
2023-03-15T00:21:39.773Z,97717.00
2023-03-15T00:24:15.006Z,97728.00
2023-03-15T00:26:50.096Z,97731.00
2023-03-15T00:29:25.236Z,97736.00
2023-03-15T00:32:00.286Z,97741.00
2023-03-15T00:34:35.302Z,97750.00
2023-03-15T00:37:11.500Z,97749.00
2023-03-15T00:39:47.669Z,97744.00
2023-03-15T00:42:27.776Z,97753.00
2023-03-15T00:45:02.811Z,97750.00
2023-03-15T00:47:37.814Z,97759.00
2023-03-15T00:50:12.771Z,97749.00
2023-03-15T00:52:47.923Z,97756.00
2023-03-15T00:55:23.239Z,97761.00
2023-03-15T00:57:58.128Z,97766.00
2023-03-15T01:00:33.249Z,97773.00
2023-03-15T01:03:08.405Z,97774.00
2023-03-15T01:05:43.420Z,97775.00
2023-03-15T01:08:18.424Z,97784.00
2023-03-15T01:10:53.392Z,97790.00
2023-03-15T01:13:30.268Z,97791.00
2023-03-15T01:16:06.541Z,97797.00
2023-03-15T01:18:42.082Z,97799.00
2023-03-15T01:21:17.374Z,97794.00
2023-03-15T01:23:55.935Z,97802.00
2023-03-15T01:26:31.288Z,97806.00
2023-03-15T01:29:06.996Z,97799.00
2023-03-15T01:31:42.183Z,97811.00
2023-03-15T01:34:17.232Z,97810.00
2023-03-15T01:36:53.332Z,97812.00
2023-03-15T01:39:31.986Z,97810.00
2023-03-15T01:42:08.020Z,97815.00
2023-03-15T01:45:00.829Z,97812.00
2023-03-15T01:47:35.924Z,97823.00
2023-03-15T01:50:12.483Z,97820.00
2023-03-15T01:52:47.620Z,97824.00
2023-03-15T01:55:26.838Z,97829.00
2023-03-15T01:58:15.925Z,97830.00
2023-03-15T02:00:54.527Z,97839.00
2023-03-15T02:03:36.438Z,97833.00
2023-03-15T02:06:18.143Z,97836.00
2023-03-15T02:09:15.083Z,97845.00
2023-03-15T02:11:50.365Z,97846.00
2023-03-15T02:14:27.476Z,97839.00
2023-03-15T02:17:02.846Z,97840.00
2023-03-15T02:19:55.077Z,97850.00
2023-03-15T02:22:57.149Z,97842.00
2023-03-15T02:25:46.235Z,97849.00
2023-03-15T02:28:22.043Z,97856.00
2023-03-15T02:30:58.039Z,97847.00
2023-03-15T02:33:47.466Z,97851.00
2023-03-15T02:36:27.037Z,97849.00
2023-03-15T02:39:03.362Z,97858.00
2023-03-15T02:41:45.056Z,97866.00
2023-03-15T02:44:28.217Z,97875.00
2023-03-15T02:47:15.888Z,97877.00
2023-03-15T02:49:53.781Z,97878.00
2023-03-15T02:52:28.793Z,97880.00
2023-03-15T02:55:04.176Z,97893.00
2023-03-15T02:57:39.098Z,97892.00
2023-03-15T03:00:15.747Z,97900.00
2023-03-15T03:02:51.879Z,97915.00
2023-03-15T03:05:27.209Z,97917.00
2023-03-15T03:08:02.797Z,97917.00
2023-03-15T03:10:37.865Z,97919.00
2023-03-15T03:13:13.022Z,97940.00
2023-03-15T03:15:58.479Z,97938.00
2023-03-15T03:18:35.955Z,97943.00
2023-03-15T03:21:14.701Z,97943.00
2023-03-15T03:23:51.281Z,97946.00
2023-03-15T03:26:28.059Z,97951.00
2023-03-15T03:29:05.614Z,97955.00
2023-03-15T03:31:42.323Z,97965.00
2023-03-15T03:34:17.424Z,97971.00
2023-03-15T03:36:52.481Z,97971.00
2023-03-15T03:39:37.541Z,97977.00
2023-03-15T03:42:14.390Z,97983.00
2023-03-15T03:44:50.667Z,97983.00
2023-03-15T03:47:27.181Z,97987.00
2023-03-15T03:50:03.491Z,97990.00
2023-03-15T03:52:38.820Z,97992.00
2023-03-15T03:55:17.591Z,98000.00
2023-03-15T03:57:55.761Z,97999.00
2023-03-15T04:00:44.220Z,98001.00
2023-03-15T04:03:19.524Z,98012.00
2023-03-15T04:05:59.572Z,98011.00
2023-03-15T04:08:36.913Z,98008.00
2023-03-15T04:11:12.228Z,98015.00
2023-03-15T04:13:49.356Z,98015.00
2023-03-15T04:16:24.873Z,98043.00
2023-03-15T04:19:09.126Z,98034.00
2023-03-15T04:21:47.284Z,98041.00
2023-03-15T04:24:45.698Z,98040.00
2023-03-15T04:27:58.655Z,98041.00
2023-03-15T04:31:00.259Z,98047.00
2023-03-15T04:33:56.682Z,98048.00
2023-03-15T04:36:54.651Z,98049.00
2023-03-15T04:39:49.408Z,98047.00
2023-03-15T04:42:43.915Z,98058.00
2023-03-15T04:45:42.734Z,98054.00
2023-03-15T04:48:44.173Z,98060.00
2023-03-15T04:51:27.962Z,98065.00
2023-03-15T04:54:19.911Z,98057.00
2023-03-15T04:57:10.721Z,98062.00
2023-03-15T04:59:54.773Z,98055.00
2023-03-15T05:02:52.124Z,98054.00
2023-03-15T05:05:46.455Z,98050.00
2023-03-15T05:08:39.279Z,98049.00
2023-03-15T05:11:29.792Z,98054.00
2023-03-15T05:14:15.436Z,98044.00
2023-03-15T05:17:15.421Z,98054.00
2023-03-15T05:19:51.653Z,98053.00
2023-03-15T05:22:47.162Z,98058.00
2023-03-15T05:25:38.633Z,98053.00
2023-03-15T05:28:33.788Z,98046.00
2023-03-15T05:31:19.759Z,98059.00
2023-03-15T05:34:15.698Z,98055.00
2023-03-15T05:37:09.479Z,98061.00
2023-03-15T05:39:56.888Z,98061.00
2023-03-15T05:42:58.303Z,98059.00
2023-03-15T05:45:44.678Z,98070.00
2023-03-15T05:48:45.404Z,98068.00
2023-03-15T05:51:26.682Z,98079.00
2023-03-15T05:54:16.446Z,98072.00
2023-03-15T05:57:08.682Z,98074.00
2023-03-15T06:00:08.910Z,98076.00
2023-03-15T06:02:49.383Z,98081.00
2023-03-15T06:05:42.582Z,98072.00
2023-03-15T06:08:22.942Z,98071.00
2023-03-15T06:11:01.739Z,98072.00
2023-03-15T06:13:38.395Z,98080.00
2023-03-15T06:16:21.002Z,98079.00
2023-03-15T06:19:00.108Z,98083.00
2023-03-15T06:21:35.185Z,98096.00
2023-03-15T06:24:17.556Z,98091.00
2023-03-15T06:26:54.821Z,98091.00
2023-03-15T06:29:30.679Z,98099.00
2023-03-15T06:32:07.513Z,98099.00
2023-03-15T06:34:45.123Z,98100.00
2023-03-15T06:37:34.234Z,98101.00
2023-03-15T06:40:11.829Z,98114.00
2023-03-15T06:42:47.147Z,98103.00
2023-03-15T06:45:24.846Z,98118.00
2023-03-15T06:48:00.691Z,98126.00
2023-03-15T06:50:46.426Z,98111.00
2023-03-15T06:53:22.380Z,98121.00
2023-03-15T06:55:57.419Z,98107.00
2023-03-15T06:58:32.304Z,98105.00
2023-03-15T07:01:07.296Z,98104.00
2023-03-15T07:03:42.704Z,98118.00
2023-03-15T07:06:17.796Z,98114.00
2023-03-15T07:08:52.679Z,98107.00
2023-03-15T07:11:27.853Z,98122.00
2023-03-15T07:14:02.804Z,98114.00
2023-03-15T07:16:37.844Z,98121.00
2023-03-15T07:19:12.725Z,98118.00
2023-03-15T07:21:47.762Z,98124.00
2023-03-15T07:24:22.792Z,98126.00
2023-03-15T07:26:57.769Z,98133.00
2023-03-15T07:29:32.717Z,98129.00
2023-03-15T07:32:07.874Z,98137.00
2023-03-15T07:34:43.136Z,98141.00
2023-03-15T07:37:18.119Z,98144.00
2023-03-15T07:39:52.975Z,98145.00
2023-03-15T07:42:27.961Z,98148.00
2023-03-15T07:45:07.905Z,98154.00
2023-03-15T07:47:42.917Z,98151.00
2023-03-15T07:50:17.883Z,98153.00
2023-03-15T07:52:53.041Z,98156.00
2023-03-15T07:55:27.946Z,98141.00
2023-03-15T07:58:03.318Z,98144.00
2023-03-15T08:00:38.194Z,98133.00
2023-03-15T08:03:13.208Z,98148.00
2023-03-15T08:05:48.234Z,98149.00
2023-03-15T08:08:23.327Z,98151.00
2023-03-15T08:10:59.420Z,98153.00
2023-03-15T08:13:34.708Z,98160.00
2023-03-15T08:16:09.692Z,98158.00
2023-03-15T08:18:44.636Z,98172.00
2023-03-15T08:21:19.601Z,98153.00
2023-03-15T08:23:54.558Z,98152.00
2023-03-15T08:26:29.483Z,98165.00
2023-03-15T08:29:05.014Z,98165.00
2023-03-15T08:31:40.345Z,98160.00
2023-03-15T08:34:16.265Z,98173.00
2023-03-15T08:36:51.413Z,98164.00
2023-03-15T08:39:26.392Z,98166.00
2023-03-15T08:42:01.360Z,98169.00
2023-03-15T08:44:36.470Z,98163.00
2023-03-15T08:47:11.768Z,98164.00
2023-03-15T08:49:46.703Z,98165.00
2023-03-15T08:52:22.245Z,98170.00
2023-03-15T08:54:57.730Z,98171.00
2023-03-15T08:57:33.211Z,98172.00
2023-03-15T09:00:09.509Z,98170.00
2023-03-15T09:02:44.687Z,98172.00
2023-03-15T09:05:21.439Z,98166.00
2023-03-15T09:07:56.488Z,98196.00
2023-03-15T09:10:31.363Z,98195.00
2023-03-15T09:13:06.476Z,98192.00
2023-03-15T09:15:41.521Z,98185.00
2023-03-15T09:18:16.512Z,98191.00
2023-03-15T09:20:51.708Z,98195.00
2023-03-15T09:23:26.703Z,98205.00
2023-03-15T09:26:01.872Z,98203.00
2023-03-15T09:28:36.717Z,98199.00
2023-03-15T09:31:11.683Z,98199.00
2023-03-15T09:33:46.813Z,98201.00
2023-03-15T09:36:21.706Z,98211.00
2023-03-15T09:38:57.100Z,98204.00
2023-03-15T09:41:55.333Z,98204.00
2023-03-15T09:44:48.091Z,98203.00
2023-03-15T09:47:38.027Z,98208.00
2023-03-15T09:50:31.185Z,98220.00
2023-03-15T09:53:28.242Z,98232.00
2023-03-15T09:56:03.432Z,98220.00
2023-03-15T09:58:38.660Z,98215.00
2023-03-15T10:01:15.213Z,98221.00
2023-03-15T10:03:52.859Z,98216.00
2023-03-15T10:06:36.492Z,98211.00
2023-03-15T10:09:19.345Z,98212.00
2023-03-15T10:12:04.796Z,98210.00
2023-03-15T10:15:30.755Z,98204.00
2023-03-15T10:18:29.861Z,98211.00
2023-03-15T10:21:13.500Z,98208.00
2023-03-15T10:23:55.651Z,98200.00
2023-03-15T10:26:36.682Z,98205.00
2023-03-15T10:29:17.793Z,98199.00
2023-03-15T10:31:54.505Z,98208.00
2023-03-15T10:34:30.094Z,98197.00
2023-03-15T10:37:06.354Z,98195.00
2023-03-15T10:39:46.764Z,98209.00
2023-03-15T10:42:32.256Z,98210.00
2023-03-15T10:45:23.446Z,98205.00
2023-03-15T10:48:00.697Z,98203.00
2023-03-15T10:50:40.548Z,98188.00
2023-03-15T10:53:25.542Z,98197.00
2023-03-15T10:56:13.490Z,98195.00
2023-03-15T10:59:05.322Z,98202.00
2023-03-15T11:01:48.789Z,98199.00
2023-03-15T11:04:32.481Z,98200.00
2023-03-15T11:07:08.894Z,98208.00
2023-03-15T11:09:52.942Z,98211.00
2023-03-15T11:12:31.628Z,98200.00
2023-03-15T11:15:16.428Z,98202.00
2023-03-15T11:17:52.826Z,98197.00
2023-03-15T11:20:40.010Z,98204.00
2023-03-15T11:23:25.805Z,98199.00
2023-03-15T11:26:01.414Z,98194.00
2023-03-15T11:28:37.618Z,98193.00
2023-03-15T11:31:12.632Z,98195.00
2023-03-15T11:34:13.659Z,98188.00
2023-03-15T11:37:07.530Z,98210.00
2023-03-15T11:40:11.573Z,98200.00
2023-03-15T11:43:02.898Z,98188.00
2023-03-15T11:45:52.786Z,98195.00
2023-03-15T11:49:35.245Z,98192.00
2023-03-15T11:52:10.854Z,98191.00
2023-03-15T11:54:46.893Z,98195.00
2023-03-15T11:57:43.454Z,98185.00
2023-03-15T12:00:51.299Z,98198.00
2023-03-15T12:03:41.167Z,98197.00
2023-03-15T12:06:18.855Z,98198.00
2023-03-15T12:08:55.503Z,98202.00
2023-03-15T12:11:38.504Z,98205.00
2023-03-15T12:14:28.974Z,98195.00
2023-03-15T12:17:28.830Z,98197.00
2023-03-15T12:20:34.760Z,98206.00
2023-03-15T12:23:31.078Z,98195.00
2023-03-15T12:26:12.596Z,98203.00
2023-03-15T12:29:20.311Z,98194.00
2023-03-15T12:32:03.615Z,98204.00
2023-03-15T12:35:08.956Z,98214.00
2023-03-15T12:37:47.118Z,98195.00
2023-03-15T12:40:26.633Z,98207.00
2023-03-15T12:43:02.379Z,98213.00
2023-03-15T12:45:40.780Z,98211.00
2023-03-15T12:48:22.178Z,98213.00
2023-03-15T12:51:05.544Z,98213.00
2023-03-15T12:53:46.132Z,98220.00
2023-03-15T12:56:32.771Z,98233.00
2023-03-15T12:59:29.161Z,98238.00
2023-03-15T13:02:42.694Z,98237.00
2023-03-15T13:05:28.947Z,98246.00
2023-03-15T13:08:24.273Z,98240.00
2023-03-15T13:11:38.510Z,98248.00
2023-03-15T13:14:36.542Z,98246.00
2023-03-15T13:17:57.664Z,98219.00
2023-03-15T13:20:54.937Z,98230.00
2023-03-15T13:23:34.224Z,98225.00
2023-03-15T13:26:16.823Z,98218.00
2023-03-15T13:29:01.666Z,98236.00
2023-03-15T13:31:38.209Z,98232.00
2023-03-15T13:34:22.047Z,98225.00
2023-03-15T13:37:00.112Z,98224.00
2023-03-15T13:39:35.391Z,98224.00
2023-03-15T13:42:24.078Z,98240.00
2023-03-15T13:45:17.286Z,98241.00
2023-03-15T13:47:52.187Z,98239.00
2023-03-15T13:50:27.138Z,98235.00
2023-03-15T13:53:02.795Z,98238.00
2023-03-15T13:55:37.843Z,98247.00
2023-03-15T13:58:13.854Z,98264.00
2023-03-15T14:00:49.128Z,98275.00
2023-03-15T14:03:24.096Z,98250.00
2023-03-15T14:05:59.246Z,98253.00
2023-03-15T14:08:37.975Z,98253.00
2023-03-15T14:11:25.080Z,98245.00
2023-03-15T14:14:04.239Z,98240.00
2023-03-15T14:17:03.129Z,98244.00
2023-03-15T14:19:40.248Z,98234.00
2023-03-15T14:22:19.307Z,98234.00
2023-03-15T14:24:55.468Z,98227.00
2023-03-15T14:27:31.065Z,98229.00
2023-03-15T14:30:23.821Z,98228.00
2023-03-15T14:33:03.605Z,98222.00
2023-03-15T14:35:38.429Z,98233.00
2023-03-15T14:38:22.766Z,98232.00
2023-03-15T14:41:28.386Z,98232.00
2023-03-15T14:44:03.299Z,98241.00
2023-03-15T14:46:38.275Z,98241.00
2023-03-15T14:49:39.647Z,98252.00
2023-03-15T14:52:14.887Z,98264.00
2023-03-15T14:54:50.571Z,98280.00
2023-03-15T14:57:25.496Z,98263.00
2023-03-15T15:00:01.349Z,98279.00
2023-03-15T15:02:37.458Z,98263.00
2023-03-15T15:05:27.872Z,98281.00
2023-03-15T15:08:15.713Z,98271.00
2023-03-15T15:10:53.954Z,98267.00
2023-03-15T15:13:31.713Z,98281.00
2023-03-15T15:16:07.652Z,98278.00
2023-03-15T15:18:42.678Z,98279.00
2023-03-15T15:21:28.008Z,98284.00
2023-03-15T15:24:10.465Z,98287.00
2023-03-15T15:26:45.575Z,98280.00
2023-03-15T15:29:21.412Z,98287.00
2023-03-15T15:31:56.408Z,98304.00
2023-03-15T15:34:33.929Z,98305.00
2023-03-15T15:37:12.703Z,98296.00
2023-03-15T15:39:48.003Z,98310.00
2023-03-15T15:42:22.946Z,98300.00
2023-03-15T15:44:57.819Z,98294.00
2023-03-15T15:47:32.702Z,98294.00
2023-03-15T15:50:11.231Z,98300.00
2023-03-15T15:52:52.581Z,98288.00
2023-03-15T15:55:32.574Z,98286.00
2023-03-15T15:58:11.842Z,98292.00
2023-03-15T16:00:46.902Z,98298.00
2023-03-15T16:03:22.040Z,98305.00
2023-03-15T16:05:57.234Z,98306.00
2023-03-15T16:08:38.138Z,98310.00
2023-03-15T16:11:16.690Z,98306.00
2023-03-15T16:13:53.987Z,98306.00
2023-03-15T16:16:29.004Z,98309.00
2023-03-15T16:19:03.886Z,98312.00
2023-03-15T16:21:48.053Z,98315.00
2023-03-15T16:24:30.144Z,98307.00
2023-03-15T16:27:08.007Z,98306.00
2023-03-15T16:29:47.532Z,98308.00
2023-03-15T16:32:37.197Z,98314.00
2023-03-15T16:35:18.635Z,98323.00
2023-03-15T16:37:56.880Z,98316.00
2023-03-15T16:40:35.554Z,98319.00
2023-03-15T16:43:14.637Z,98328.00
2023-03-15T16:45:50.866Z,98327.00
2023-03-15T16:48:25.730Z,98328.00
2023-03-15T16:51:00.634Z,98334.00
2023-03-15T16:53:37.321Z,98327.00
2023-03-15T16:56:13.980Z,98325.00
2023-03-15T16:58:52.820Z,98335.00
2023-03-15T17:01:27.805Z,98326.00
2023-03-15T17:04:02.771Z,98337.00
2023-03-15T17:06:37.885Z,98340.00
2023-03-15T17:09:21.436Z,98341.00
2023-03-15T17:11:56.375Z,98346.00
2023-03-15T17:14:34.410Z,98350.00
2023-03-15T17:17:09.986Z,98350.00
2023-03-15T17:19:45.701Z,98356.00
2023-03-15T17:22:21.457Z,98368.00
2023-03-15T17:24:56.450Z,98362.00
2023-03-15T17:27:42.049Z,98364.00
2023-03-15T17:30:25.584Z,98362.00
2023-03-15T17:33:01.183Z,98361.00
2023-03-15T17:35:41.155Z,98373.00
2023-03-15T17:38:24.369Z,98372.00
2023-03-15T17:40:59.630Z,98376.00
2023-03-15T17:43:34.602Z,98375.00
2023-03-15T17:46:12.056Z,98384.00
2023-03-15T17:48:48.597Z,98373.00
2023-03-15T17:51:27.358Z,98380.00
2023-03-15T17:54:02.705Z,98386.00
2023-03-15T17:56:37.769Z,98378.00
2023-03-15T17:59:13.312Z,98376.00
2023-03-15T18:01:48.805Z,98386.00
2023-03-15T18:04:25.079Z,98388.00
2023-03-15T18:07:00.088Z,98388.00
2023-03-15T18:09:34.978Z,98379.00
2023-03-15T18:12:11.665Z,98385.00
2023-03-15T18:14:47.736Z,98380.00
2023-03-15T18:17:23.010Z,98393.00
2023-03-15T18:19:57.991Z,98400.00
2023-03-15T18:22:32.888Z,98399.00
2023-03-15T18:25:20.605Z,98402.00
2023-03-15T18:27:55.520Z,98409.00
2023-03-15T18:30:31.996Z,98405.00
2023-03-15T18:33:06.969Z,98410.00
2023-03-15T18:35:42.166Z,98406.00
2023-03-15T18:38:17.173Z,98404.00
2023-03-15T18:40:52.215Z,98399.00
2023-03-15T18:43:27.497Z,98397.00
2023-03-15T18:46:02.467Z,98401.00
2023-03-15T18:48:40.827Z,98412.00
2023-03-15T18:51:17.515Z,98409.00
2023-03-15T18:53:53.013Z,98421.00
2023-03-15T18:56:34.262Z,98416.00
2023-03-15T18:59:09.207Z,98417.00
2023-03-15T19:01:45.148Z,98414.00
2023-03-15T19:04:21.295Z,98422.00
2023-03-15T19:06:56.302Z,98420.00
2023-03-15T19:09:31.202Z,98423.00
2023-03-15T19:12:06.713Z,98425.00
2023-03-15T19:14:42.769Z,98422.00
2023-03-15T19:17:18.634Z,98415.00
2023-03-15T19:19:53.543Z,98429.00
2023-03-15T19:22:31.077Z,98426.00
2023-03-15T19:25:08.511Z,98431.00
2023-03-15T19:27:44.403Z,98417.00
2023-03-15T19:30:22.142Z,98418.00
2023-03-15T19:32:57.205Z,98431.00
2023-03-15T19:35:33.594Z,98422.00
2023-03-15T19:38:09.197Z,98432.00
2023-03-15T19:40:44.092Z,98440.00
2023-03-15T19:43:19.862Z,98446.00
2023-03-15T19:45:54.849Z,98444.00
2023-03-15T19:48:29.980Z,98448.00
2023-03-15T19:51:05.171Z,98448.00
2023-03-15T19:53:40.052Z,98447.00
2023-03-15T19:56:15.189Z,98438.00
2023-03-15T19:58:50.132Z,98448.00
2023-03-15T20:01:25.143Z,98459.00
2023-03-15T20:04:00.306Z,98446.00
2023-03-15T20:06:35.306Z,98459.00
2023-03-15T20:09:11.896Z,98453.00
2023-03-15T20:11:46.849Z,98457.00
2023-03-15T20:14:22.663Z,98454.00
2023-03-15T20:16:57.564Z,98456.00
2023-03-15T20:19:32.713Z,98455.00
2023-03-15T20:22:07.617Z,98469.00
2023-03-15T20:24:44.224Z,98467.00
2023-03-15T20:27:19.564Z,98460.00
2023-03-15T20:29:56.634Z,98459.00
2023-03-15T20:32:31.597Z,98469.00
2023-03-15T20:35:09.327Z,98471.00
2023-03-15T20:37:44.327Z,98466.00
2023-03-15T20:40:20.119Z,98461.00
2023-03-15T20:42:55.743Z,98470.00
2023-03-15T20:45:33.266Z,98474.00
2023-03-15T20:48:08.443Z,98477.00
2023-03-15T20:50:43.436Z,98474.00
2023-03-15T20:53:19.313Z,98469.00
2023-03-15T20:55:54.375Z,98472.00
2023-03-15T20:58:29.758Z,98474.00
2023-03-15T21:01:13.037Z,98471.00
2023-03-15T21:03:48.514Z,98463.00
2023-03-15T21:06:23.891Z,98475.00
2023-03-15T21:08:58.750Z,98476.00
2023-03-15T21:11:33.851Z,98475.00
2023-03-15T21:14:09.056Z,98476.00
2023-03-15T21:16:43.965Z,98474.00
2023-03-15T21:19:18.988Z,98479.00
2023-03-15T21:21:53.912Z,98486.00
2023-03-15T21:24:31.185Z,98483.00
2023-03-15T21:27:07.004Z,98483.00
2023-03-15T21:29:42.274Z,98484.00
2023-03-15T21:32:17.171Z,98474.00
2023-03-15T21:34:52.115Z,98475.00
2023-03-15T21:37:27.128Z,98482.00
2023-03-15T21:40:04.211Z,98479.00
2023-03-15T21:42:39.683Z,98481.00
2023-03-15T21:45:14.737Z,98467.00
2023-03-15T21:47:49.717Z,98473.00
2023-03-15T21:50:24.973Z,98474.00
2023-03-15T21:53:00.036Z,98482.00
2023-03-15T21:55:34.969Z,98482.00
2023-03-15T21:58:09.883Z,98481.00
2023-03-15T22:00:44.797Z,98487.00
2023-03-15T22:03:19.741Z,98484.00
2023-03-15T22:05:54.787Z,98492.00
2023-03-15T22:08:29.852Z,98484.00
2023-03-15T22:11:05.137Z,98481.00
2023-03-15T22:13:41.672Z,98478.00
2023-03-15T22:16:17.549Z,98492.00
2023-03-15T22:18:52.486Z,98488.00
2023-03-15T22:21:27.321Z,98486.00
2023-03-15T22:24:02.266Z,98484.00
2023-03-15T22:26:37.236Z,98482.00
2023-03-15T22:29:12.477Z,98487.00
2023-03-15T22:31:47.397Z,98487.00
2023-03-15T22:34:22.315Z,98496.00
2023-03-15T22:36:57.270Z,98494.00
2023-03-15T22:39:34.079Z,98485.00
2023-03-15T22:42:09.398Z,98486.00
2023-03-15T22:44:44.275Z,98482.00
2023-03-15T22:47:19.170Z,98479.00
2023-03-15T22:49:55.390Z,98495.00
2023-03-15T22:52:30.328Z,98484.00
2023-03-15T22:55:07.588Z,98486.00
2023-03-15T22:57:42.685Z,98493.00
2023-03-15T23:00:21.695Z,98482.00
2023-03-15T23:02:56.612Z,98481.00
2023-03-15T23:05:31.535Z,98483.00
2023-03-15T23:08:06.612Z,98471.00
2023-03-15T23:10:42.485Z,98475.00
2023-03-15T23:13:17.602Z,98473.00
2023-03-15T23:15:52.686Z,98478.00
2023-03-15T23:18:27.686Z,98471.00
2023-03-15T23:21:12.600Z,98461.00
2023-03-15T23:23:47.516Z,98460.00
2023-03-15T23:26:25.289Z,98464.00
2023-03-15T23:29:00.179Z,98457.00
2023-03-15T23:31:35.086Z,98455.00
2023-03-15T23:34:10.128Z,98464.00
2023-03-15T23:36:45.459Z,98462.00
2023-03-15T23:39:22.069Z,98466.00
2023-03-15T23:41:57.978Z,98455.00
2023-03-15T23:44:34.104Z,98455.00
2023-03-15T23:47:09.202Z,98455.00
2023-03-15T23:49:44.284Z,98456.00
2023-03-15T23:52:19.273Z,98456.00
2023-03-15T23:54:54.332Z,98465.00
2023-03-15T23:57:29.300Z,98460.00
